Terminal Aerodrome Forecast
Issued by NWS Wilmington, OH

Home | Current Version | Previous Version | Text Only | Print | Product List | Glossary On
Versions: 1 2 3 4 5 6 7 8 9 10 11 12 13 14 15 16 17 18 19 20 21 22 23 24 25 26 27 28 29 30 31 32 33
013
FTUS41 KILN 010236 AAD
TAFDAY
TAF AMD
KDAY 010236Z 0103/0124 17012G22KT P6SM VCSH BKN110 WS020/19040KT
     FM010600 19014G22KT 3SM -TSRA OVC035CB
     FM011100 21012KT P6SM OVC050
     FM011700 21022G31KT P6SM BKN050=

USA.gov is the U.S. government's official web portal to all federal, state and local government web resources and services.